createdAt,value
2016-04-22T00:00:33.022Z,56.43
2016-04-22T00:01:33.197Z,56.21
2016-04-22T00:02:33.247Z,55.54
2016-04-22T00:03:33.233Z,56.78
2016-04-22T00:04:33.245Z,55.92
2016-04-22T00:05:33.248Z,55.63
2016-04-22T00:06:33.298Z,55.44
2016-04-22T00:07:33.286Z,55.35
2016-04-22T00:08:33.303Z,55.54
2016-04-22T00:09:33.322Z,56.59
2016-04-22T00:10:33.325Z,56.59
2016-04-22T00:11:33.342Z,55.73
2016-04-22T00:12:33.252Z,55.73
2016-04-22T00:13:33.380Z,55.35
2016-04-22T00:14:33.383Z,54.59
2016-04-22T00:15:33.416Z,53.92
2016-04-22T00:16:33.435Z,54.49
2016-04-22T00:17:33.452Z,54.68
2016-04-22T00:18:33.441Z,55.35
2016-04-22T00:19:33.458Z,55.54
2016-04-22T00:20:33.477Z,55.16
2016-04-22T00:21:33.494Z,55.54
2016-04-22T00:22:33.513Z,55.07
2016-04-22T00:23:33.532Z,55.63
2016-04-22T00:24:33.535Z,55.83
2016-04-22T00:25:33.568Z,55.26
2016-04-22T00:26:33.571Z,55.07
2016-04-22T00:27:33.621Z,55.07
2016-04-22T00:28:33.607Z,55.83
2016-04-22T00:29:33.610Z,56.49
2016-04-22T00:30:33.629Z,55.35
2016-04-22T00:31:33.663Z,55.8
2016-04-22T00:32:33.665Z,55.73
2016-04-22T00:33:33.668Z,55.22
2016-04-22T00:34:33.686Z,55.16
2016-04-22T00:35:33.704Z,54.94
2016-04-22T00:36:33.708Z,54.85
2016-04-22T00:37:33.727Z,54.78
2016-04-22T00:38:33.730Z,55.51
2016-04-22T00:39:33.747Z,55.92
2016-04-22T00:40:33.766Z,55.32
2016-04-22T00:41:33.785Z,55.8
2016-04-22T00:42:33.646Z,56.37
2016-04-22T00:43:33.804Z,55.42
2016-04-22T00:44:33.840Z,55.61
2016-04-22T00:45:33.857Z,55.32
2016-04-22T00:46:33.876Z,55.32
2016-04-22T00:47:33.862Z,55.61
2016-04-22T00:48:33.881Z,56.27
2016-04-22T00:49:33.898Z,56.65
2016-04-22T00:50:33.902Z,56.09
2016-04-22T00:51:33.920Z,56.46
2016-04-22T00:52:33.954Z,57.04
2016-04-22T00:53:33.957Z,57.32
2016-04-22T00:54:33.960Z,56.94
2016-04-22T00:55:33.994Z,56.75
2016-04-22T00:56:33.996Z,55.61
2016-04-22T00:57:34.014Z,55.9
2016-04-22T00:58:34.017Z,55.32
2016-04-22T00:59:34.051Z,55.13
2016-04-22T01:00:34.147Z,55.04
2016-04-22T01:01:34.072Z,55.61
2016-04-22T01:02:34.074Z,55.22
2016-04-22T01:03:34.093Z,55.13
2016-04-22T01:04:34.111Z,54.85
2016-04-22T01:05:34.130Z,55.32
2016-04-22T01:06:34.148Z,55.61
2016-04-22T01:07:34.151Z,56.09
2016-04-22T01:08:34.169Z,55.8
2016-04-22T01:09:34.187Z,55.8
2016-04-22T01:10:34.205Z,55.8
2016-04-22T01:11:34.224Z,56.46
2016-04-22T01:12:34.258Z,55.61
2016-04-22T01:13:34.245Z,55.7
2016-04-22T01:14:34.279Z,55.99
2016-04-22T01:15:34.282Z,56.94
2016-04-22T01:16:34.284Z,57.23
2016-04-22T01:17:34.334Z,57.58
2016-04-22T01:18:34.306Z,56.92
2016-04-22T01:19:34.323Z,56.82
2016-04-22T01:20:34.342Z,57.29
2016-04-22T01:21:34.485Z,57.2
2016-04-22T01:22:34.363Z,57.87
2016-04-22T01:23:34.381Z,57.48
2016-04-22T01:24:34.400Z,57.48
2016-04-22T01:25:34.403Z,57.39
2016-04-22T01:26:34.420Z,57.58
2016-04-22T01:27:34.439Z,55.87
2016-04-22T01:28:34.458Z,55.49
2016-04-22T01:29:34.506Z,56.24
2016-04-22T01:30:34.478Z,55.77
2016-04-22T01:31:34.497Z,55.68
2016-04-22T01:32:34.514Z,55.49
2016-04-22T01:33:34.533Z,55.68
2016-04-22T01:34:34.536Z,56.34
2016-04-22T01:35:34.539Z,56.24
2016-04-22T01:36:34.572Z,56.44
2016-04-22T01:37:34.575Z,56.53
2016-04-22T01:38:34.594Z,55.2
2016-04-22T01:39:34.596Z,54.25
2016-04-22T01:40:34.630Z,53.3
2016-04-22T01:41:34.633Z,53.49
2016-04-22T01:42:34.652Z,53.23
2016-04-22T01:43:34.654Z,52.18
2016-04-22T01:44:34.672Z,52.75
2016-04-22T01:45:34.690Z,52.28
2016-04-22T01:46:34.693Z,52.09
2016-04-22T01:47:34.712Z,51.7
2016-04-22T01:48:34.746Z,51.61
2016-04-22T01:49:34.748Z,51.04
2016-04-22T01:50:34.767Z,51.23
2016-04-22T01:51:34.770Z,51.23
2016-04-22T01:52:34.803Z,51.14
2016-04-22T01:53:34.806Z,51.23
2016-04-22T01:54:34.809Z,51.32
2016-04-22T01:55:34.827Z,51.04
2016-04-22T01:56:34.845Z,51.42
2016-04-22T01:57:34.864Z,51.89
2016-04-22T01:58:34.866Z,50.75
2016-04-22T01:59:34.884Z,50.66
2016-04-22T02:00:34.903Z,51.61
2016-04-22T02:01:34.906Z,50.94
2016-04-22T02:02:34.939Z,51.23
2016-04-22T02:03:34.958Z,50.46
2016-04-22T02:04:34.961Z,50.3
2016-04-22T02:05:34.994Z,49.42
2016-04-22T02:06:34.997Z,49.13
2016-04-22T02:07:35.000Z,49.54
2016-04-22T02:08:35.034Z,49.04
2016-04-22T02:09:35.052Z,49.8
2016-04-22T02:10:35.071Z,49.9
2016-04-22T02:11:34.917Z,50.94
2016-04-22T02:12:35.076Z,50.66
2016-04-22T02:13:35.094Z,50.97
2016-04-22T02:14:35.113Z,50.97
2016-04-22T02:15:35.130Z,51.35
2016-04-22T02:16:35.133Z,51.92
2016-04-22T02:17:35.152Z,51.35
2016-04-22T02:18:35.154Z,51.45
2016-04-22T02:19:35.173Z,51.35
2016-04-22T02:20:35.191Z,51.92
2016-04-22T02:21:35.210Z,52.2
2016-04-22T02:22:35.212Z,53.64
2016-04-22T02:23:35.231Z,53.73
2016-04-22T02:24:35.248Z,53.92
2016-04-22T02:25:35.267Z,54.11
2016-04-22T02:26:35.270Z,54.39
2016-04-22T02:27:35.304Z,54.3
2016-04-22T02:28:35.322Z,54.68
2016-04-22T02:29:35.325Z,54.59
2016-04-22T02:30:35.328Z,55.35
2016-04-22T02:31:35.361Z,55.63
2016-04-22T02:32:35.364Z,55.16
2016-04-22T02:33:35.382Z,55.54
2016-04-22T02:34:35.416Z,55.83
2016-04-22T02:35:35.403Z,56.02
2016-04-22T02:36:35.422Z,55.83
2016-04-22T02:37:35.439Z,56.21
2016-04-22T02:38:35.474Z,56.49
2016-04-22T02:39:35.461Z,56.59
2016-04-22T02:40:35.479Z,56.97
2016-04-22T02:41:35.497Z,56.87
2016-04-22T02:42:35.500Z,57.23
2016-04-22T02:43:35.519Z,56.94
2016-04-22T02:44:35.537Z,57.07
2016-04-22T02:45:35.571Z,57.23
2016-04-22T02:46:35.573Z,57.8
2016-04-22T02:47:35.576Z,58.18
2016-04-22T02:48:35.594Z,58.18
2016-04-22T02:49:35.612Z,58.65
2016-04-22T02:50:35.631Z,58.75
2016-04-22T02:51:35.634Z,58.59
2016-04-22T02:52:35.668Z,58.94
2016-04-22T02:53:35.670Z,58.87
2016-04-22T02:54:35.704Z,59.16
2016-04-22T02:55:35.706Z,59.13
2016-04-22T02:56:35.710Z,59.23
2016-04-22T02:57:35.744Z,58.84
2016-04-22T02:58:35.730Z,59.23
2016-04-22T02:59:35.749Z,59.42
2016-04-22T03:00:35.783Z,59.23
2016-04-22T03:01:35.786Z,59.42
2016-04-22T03:02:35.804Z,59.42
2016-04-22T03:03:35.822Z,59.42
2016-04-22T03:04:35.825Z,59.42
2016-04-22T03:05:35.843Z,59.51
2016-04-22T03:06:35.861Z,59.89
2016-04-22T03:07:35.864Z,59.32
2016-04-22T03:08:35.882Z,59.42
2016-04-22T03:09:35.900Z,59.51
2016-04-22T03:10:35.903Z,59.23
2016-04-22T03:11:35.922Z,59.61
2016-04-22T03:12:35.941Z,59.61
2016-04-22T03:13:35.958Z,59.99
2016-04-22T03:14:35.977Z,59.61
2016-04-22T03:15:35.996Z,60.46
2016-04-22T03:16:35.998Z,60.56
2016-04-22T03:17:36.016Z,60.46
2016-04-22T03:18:36.035Z,60.66
2016-04-22T03:19:36.052Z,60.66
2016-04-22T03:20:36.055Z,61.13
2016-04-22T03:21:36.074Z,61.04
2016-04-22T03:22:36.076Z,60.56
2016-04-22T03:23:36.095Z,60.66
2016-04-22T03:24:36.113Z,61.04
2016-04-22T03:25:36.116Z,60.56
2016-04-22T03:26:36.135Z,60.75
2016-04-22T03:27:36.153Z,60.27
2016-04-22T03:28:36.171Z,60.75
2016-04-22T03:29:36.189Z,60.27
2016-04-22T03:30:36.192Z,60.46
2016-04-22T03:31:36.210Z,60.66
2016-04-22T03:32:36.244Z,60.08
2016-04-22T03:33:36.231Z,60.37
2016-04-22T03:34:36.264Z,60.56
2016-04-22T03:35:36.283Z,60.27
2016-04-22T03:36:36.286Z,60.37
2016-04-22T03:37:36.304Z,60.27
2016-04-22T03:38:36.308Z,60.37
2016-04-22T03:39:36.325Z,59.99
2016-04-22T03:40:36.344Z,60.27
2016-04-22T03:41:36.347Z,60.18
2016-04-22T03:42:36.380Z,60.37
2016-04-22T03:43:36.383Z,60.46
2016-04-22T03:44:36.417Z,60.27
2016-04-22T03:45:36.419Z,60.27
2016-04-22T03:46:36.438Z,60.56
2016-04-22T03:47:36.457Z,60.08
2016-04-22T03:48:36.443Z,60.18
2016-04-22T03:49:36.493Z,60.46
2016-04-22T03:50:36.495Z,60.56
2016-04-22T03:51:36.498Z,60.46
2016-04-22T03:52:36.516Z,60.56
2016-04-22T03:53:36.535Z,60.46
2016-04-22T03:54:36.538Z,60.37
2016-04-22T03:55:36.557Z,60.37
2016-04-22T03:56:36.574Z,60.46
2016-04-22T03:57:36.577Z,60.56
2016-04-22T03:58:36.595Z,60.18
2016-04-22T03:59:36.614Z,59.89
2016-04-22T04:00:36.617Z,59.99
2016-04-22T04:01:36.681Z,60.56
2016-04-22T04:02:36.653Z,59.8
2016-04-22T04:03:36.670Z,60.46
2016-04-22T04:04:36.689Z,60.46
2016-04-22T04:05:36.692Z,60.18
2016-04-22T04:06:36.710Z,59.99
2016-04-22T04:07:36.714Z,60.37
2016-04-22T04:08:36.747Z,60.66
2016-04-22T04:09:36.750Z,60.37
2016-04-22T04:10:36.769Z,60.46
2016-04-22T04:11:36.771Z,60.27
2016-04-22T04:12:36.789Z,60.27
2016-04-22T04:13:36.807Z,60.66
2016-04-22T04:14:36.825Z,60.75
2016-04-22T04:15:36.860Z,60.37
2016-04-22T04:16:36.862Z,60.37
2016-04-22T04:17:36.865Z,60.75
2016-04-22T04:18:36.899Z,60.37
2016-04-22T04:19:36.885Z,60.46
2016-04-22T04:20:36.904Z,60.56
2016-04-22T04:21:36.907Z,59.99
2016-04-22T04:22:36.955Z,59.99
2016-04-22T04:23:36.996Z,60.56
2016-04-22T04:24:37.055Z,60.46
2016-04-22T04:25:37.127Z,60.08
2016-04-22T04:26:37.153Z,60.56
2016-04-22T04:27:37.200Z,60.37
2016-04-22T04:28:37.233Z,59.89
2016-04-22T04:29:37.266Z,59.96
2016-04-22T04:30:37.298Z,59.99
2016-04-22T04:31:37.331Z,60.37
2016-04-22T04:32:37.344Z,60.46
2016-04-22T04:33:37.367Z,60.18
2016-04-22T04:34:37.531Z,60.46
2016-04-22T04:35:37.398Z,60.56
2016-04-22T04:36:37.438Z,60.66
2016-04-22T04:37:37.443Z,60.27
2016-04-22T04:38:37.448Z,60.46
2016-04-22T04:39:37.469Z,61.42
2016-04-22T04:40:37.488Z,61.61
2016-04-22T04:41:37.493Z,61.48
2016-04-22T04:42:37.513Z,60.72
2016-04-22T04:43:37.532Z,61.19
2016-04-22T04:44:37.535Z,61.38
2016-04-22T04:45:37.553Z,61.19
2016-04-22T04:46:37.587Z,62.15
2016-04-22T04:47:37.590Z,61.48
2016-04-22T04:48:37.594Z,61.1
2016-04-22T04:49:37.613Z,61.86
2016-04-22T04:50:37.647Z,62.24
2016-04-22T04:51:37.650Z,61.86
2016-04-22T04:52:37.669Z,62.24
2016-04-22T04:53:37.688Z,62.15
2016-04-22T04:54:37.690Z,62.24
2016-04-22T04:55:37.693Z,62.15
2016-04-22T04:56:37.710Z,61.48
2016-04-22T04:57:37.744Z,61.67
2016-04-22T04:58:37.591Z,62.08
2016-04-22T04:59:37.749Z,61.58
2016-04-22T05:00:37.768Z,61.29
2016-04-22T05:01:37.771Z,61.32
2016-04-22T05:02:37.804Z,61.7
2016-04-22T05:03:37.964Z,62.18
2016-04-22T05:04:37.826Z,61.9
2016-04-22T05:05:37.845Z,62.27
2016-04-22T05:06:37.879Z,62.24
2016-04-22T05:07:37.865Z,63.1
2016-04-22T05:08:37.931Z,63.1
2016-04-22T05:09:37.887Z,63.39
2016-04-22T05:10:37.905Z,62.24
2016-04-22T05:11:37.940Z,63.2
2016-04-22T05:12:37.942Z,62.53
2016-04-22T05:13:37.976Z,62.91
2016-04-22T05:14:37.963Z,63.2
2016-04-22T05:15:38.029Z,62.53
2016-04-22T05:16:37.984Z,62.37
2016-04-22T05:17:38.003Z,63.42
2016-04-22T05:18:38.021Z,63.6
2016-04-22T05:19:38.040Z,63.89
2016-04-22T05:20:38.057Z,62.81
2016-04-22T05:21:38.076Z,63.48
2016-04-22T05:22:38.079Z,63.86
2016-04-22T05:23:38.112Z,64.08
2016-04-22T05:24:38.100Z,63.01
2016-04-22T05:25:38.117Z,63.01
2016-04-22T05:26:38.136Z,61.99
2016-04-22T05:27:38.139Z,62.56
2016-04-22T05:28:38.158Z,62.46
2016-04-22T05:29:38.160Z,61.9
2016-04-22T05:30:38.178Z,61.8
2016-04-22T05:31:38.197Z,61.99
2016-04-22T05:32:38.214Z,61.32
2016-04-22T05:33:38.249Z,61.32
2016-04-22T05:34:38.252Z,61.83
2016-04-22T05:35:38.285Z,62.59
2016-04-22T05:36:38.272Z,62.02
2016-04-22T05:37:38.322Z,61.25
2016-04-22T05:38:38.310Z,61.16
2016-04-22T05:39:38.313Z,61.35
2016-04-22T05:40:38.329Z,60.4
2016-04-22T05:41:38.349Z,60.14
2016-04-22T05:42:38.366Z,57.86
2016-04-22T05:43:38.369Z,58.43
2016-04-22T05:44:38.388Z,58.04
2016-04-22T05:45:38.390Z,58.43
2016-04-22T05:46:38.424Z,58.65
2016-04-22T05:47:38.427Z,59.12
2016-04-22T05:48:38.445Z,58.17
2016-04-22T05:49:38.464Z,56.55
2016-04-22T05:50:38.512Z,55.69
2016-04-22T05:51:38.500Z,55.02
2016-04-22T05:52:38.503Z,55.12
2016-04-22T05:53:38.552Z,54.17
2016-04-22T05:54:38.539Z,54.93
2016-04-22T05:55:38.558Z,54.83
2016-04-22T05:56:38.576Z,54.36
2016-04-22T05:57:38.578Z,54.29
2016-04-22T05:58:38.598Z,53.43
2016-04-22T05:59:38.616Z,54
2016-04-22T06:00:38.650Z,54
2016-04-22T06:01:38.652Z,53.72
2016-04-22T06:02:38.670Z,53.91
2016-04-22T06:03:38.673Z,54.1
2016-04-22T06:04:38.708Z,52.76
2016-04-22T06:05:38.710Z,52.95
2016-04-22T06:06:38.728Z,53.14
2016-04-22T06:07:38.747Z,53.27
2016-04-22T06:08:38.766Z,53.55
2016-04-22T06:09:38.767Z,54.6
2016-04-22T06:10:38.785Z,54.32
2016-04-22T06:11:38.835Z,55.65
2016-04-22T06:12:38.822Z,54.13
2016-04-22T06:13:38.840Z,52.79
2016-04-22T06:14:38.860Z,52.81
2016-04-22T06:15:38.876Z,52.43
2016-04-22T06:16:38.879Z,52.34
2016-04-22T06:17:38.898Z,53
2016-04-22T06:18:38.917Z,52.53
2016-04-22T06:19:38.934Z,49.47
2016-04-22T06:20:38.953Z,49.85
2016-04-22T06:21:38.971Z,51.57
2016-04-22T06:22:38.989Z,52.26
2016-04-22T06:23:39.008Z,49.98
2016-04-22T06:24:39.026Z,49.02
2016-04-22T06:25:39.029Z,48.25
2016-04-22T06:26:39.064Z,48.54
2016-04-22T06:27:39.066Z,49.4
2016-04-22T06:28:39.084Z,48.38
2016-04-22T06:29:39.102Z,48.66
2016-04-22T06:30:39.137Z,50.38
2016-04-22T06:31:39.139Z,49.14
2016-04-22T06:32:39.158Z,50
2016-04-22T06:33:39.192Z,47.89
2016-04-22T06:34:39.194Z,46.37
2016-04-22T06:35:39.213Z,47.32
2016-04-22T06:36:39.247Z,47.34
2016-04-22T06:37:39.843Z,47.53
2016-04-22T06:38:39.267Z,47.25
2016-04-22T06:39:39.269Z,45.34
2016-04-22T06:40:39.304Z,46.39
2016-04-22T06:41:39.557Z,46.3
2016-04-22T06:42:39.902Z,44.95
2016-04-22T06:43:39.359Z,44.79
2016-04-22T06:44:39.377Z,44.02
2016-04-22T06:45:39.380Z,44.98
2016-04-22T06:46:39.413Z,45.17
2016-04-22T06:47:39.416Z,43.63
2016-04-22T06:48:39.451Z,42.97
2016-04-22T06:49:39.454Z,42.97
2016-04-22T06:50:39.471Z,43.27
2016-04-22T06:51:39.490Z,42.9
2016-04-22T06:52:39.523Z,42.32
2016-04-22T06:53:39.527Z,43.08
2016-04-22T06:54:39.544Z,44.04
2016-04-22T06:55:39.578Z,42.9
2016-04-22T06:56:39.581Z,42.14
2016-04-22T06:57:39.662Z,40.04
2016-04-22T06:58:39.634Z,39.77
2016-04-22T06:59:39.653Z,39.22
2016-04-22T07:00:39.670Z,40.84
2016-04-22T07:01:39.688Z,39.22
2016-04-22T07:02:39.706Z,39.31
2016-04-22T07:03:39.725Z,38.45
2016-04-22T07:04:39.744Z,39.41
2016-04-22T07:05:39.808Z,39.23
2016-04-22T07:06:39.780Z,38.47
2016-04-22T07:07:39.799Z,37.41
2016-04-22T07:08:39.816Z,37.05
2016-04-22T07:09:39.850Z,38.49
2016-04-22T07:10:39.869Z,38.49
2016-04-22T07:11:39.919Z,37.24
2016-04-22T07:12:39.922Z,37.43
2016-04-22T07:13:39.940Z,37.62
2016-04-22T07:14:39.958Z,38.29
2016-04-22T07:15:39.976Z,38.49
2016-04-22T07:16:39.994Z,36.76
2016-04-22T07:17:40.029Z,37.24
2016-04-22T07:18:40.046Z,36.18
2016-04-22T07:19:40.065Z,37.24
2016-04-22T07:20:40.084Z,36.76
2016-04-22T07:21:40.101Z,36.28
2016-04-22T07:22:40.120Z,37.24
2016-04-22T07:23:40.138Z,37.15
2016-04-22T07:24:40.156Z,37.15
2016-04-22T07:25:40.190Z,35.13
2016-04-22T07:26:40.209Z,36.49
2016-04-22T07:27:40.117Z,36.28
2016-04-22T07:28:40.245Z,35.32
2016-04-22T07:29:40.279Z,33.9
2016-04-22T07:30:40.314Z,35.89
2016-04-22T07:31:40.317Z,35.61
2016-04-22T07:32:40.334Z,34.57
2016-04-22T07:33:40.352Z,35.14
2016-04-22T07:34:40.372Z,33.8
2016-04-22T07:35:40.389Z,34.19
2016-04-22T07:36:40.408Z,34.38
2016-04-22T07:37:40.426Z,36.01
2016-04-22T07:38:40.475Z,34.86
2016-04-22T07:39:40.494Z,32.55
2016-04-22T07:40:40.497Z,32.46
2016-04-22T07:41:40.515Z,34.3
2016-04-22T07:42:40.549Z,34.11
2016-04-22T07:43:40.567Z,33.82
2016-04-22T07:44:40.585Z,31.99
2016-04-22T07:45:40.947Z,30.93
2016-04-22T07:46:40.622Z,31.61
2016-04-22T07:47:40.640Z,32.38
2016-04-22T07:48:40.674Z,32.86
2016-04-22T07:49:40.693Z,32.57
2016-04-22T07:50:40.710Z,32.18
2016-04-22T07:51:40.729Z,32.47
2016-04-22T07:52:40.763Z,32.18
2016-04-22T07:53:40.765Z,32.01
2016-04-22T07:54:40.800Z,29.61
2016-04-22T07:55:40.818Z,31.92
2016-04-22T07:56:40.837Z,31.34
2016-04-22T07:57:40.855Z,30.97
2016-04-22T07:58:40.874Z,31.93
2016-04-22T07:59:40.892Z,31.06
2016-04-22T08:00:40.926Z,29.04
2016-04-22T08:01:40.944Z,29.24
2016-04-22T08:02:40.961Z,27.91
2016-04-22T08:03:40.996Z,30
2016-04-22T08:04:41.015Z,28.19
2016-04-22T08:05:41.032Z,28.77
2016-04-22T08:06:41.051Z,29.63
2016-04-22T08:07:41.085Z,30.11
2016-04-22T08:08:41.119Z,28.2
2016-04-22T08:09:41.137Z,28.11
2016-04-22T08:10:41.139Z,28.11
2016-04-22T08:11:41.174Z,27.34
2016-04-22T08:12:41.224Z,26.57
2016-04-22T08:13:41.210Z,27.83
2016-04-22T08:14:41.229Z,28.51
2016-04-22T08:15:41.278Z,25.62
2016-04-22T08:16:41.296Z,26.5
2016-04-22T08:17:41.299Z,26.5
2016-04-22T08:18:41.349Z,25.92
2016-04-22T08:19:41.399Z,24.76
2016-04-22T08:20:41.385Z,25.74
2016-04-22T08:21:41.404Z,25.45
2016-04-22T08:22:41.438Z,24.77
2016-04-22T08:23:41.456Z,25.26
2016-04-22T08:24:41.474Z,23.24
2016-04-22T08:25:41.493Z,22.67
2016-04-22T08:26:41.542Z,22.57
2016-04-22T08:27:41.560Z,22.57
2016-04-22T08:28:41.579Z,23.44
2016-04-22T08:29:41.597Z,24.6
2016-04-22T08:30:41.615Z,22.97
2016-04-22T08:31:41.650Z,23.45
2016-04-22T08:32:41.667Z,23.35
2016-04-22T08:33:41.717Z,23.25
2016-04-22T08:34:41.720Z,23.16
2016-04-22T08:35:41.753Z,21.71
2016-04-22T08:36:41.757Z,21.52
2016-04-22T08:37:41.791Z,21.91
2016-04-22T08:38:41.808Z,22.67
2016-04-22T08:39:41.842Z,23.16
2016-04-22T08:40:41.877Z,21.91
2016-04-22T08:41:41.880Z,22.98
2016-04-22T08:42:41.914Z,21.82
2016-04-22T08:43:41.947Z,21.44
2016-04-22T08:44:41.810Z,20.95
2016-04-22T08:45:41.984Z,20
2016-04-22T08:46:42.018Z,18.74
2016-04-22T08:47:42.036Z,18.26
2016-04-22T08:48:42.071Z,18.34
2016-04-22T08:49:42.088Z,19.5
2016-04-22T08:50:42.122Z,20.76
2016-04-22T08:51:42.156Z,20.96
2016-04-22T08:52:42.175Z,17.97
2016-04-22T08:53:42.177Z,16.81
2016-04-22T08:54:42.227Z,18.93
2016-04-22T08:55:42.246Z,18.26
2016-04-22T08:56:42.263Z,17.68
2016-04-22T08:57:42.297Z,18.35
2016-04-22T08:58:42.315Z,18.93
2016-04-22T08:59:42.397Z,19.12
2016-04-22T09:00:42.368Z,18.55
2016-04-22T09:01:42.387Z,19.7
2016-04-22T09:03:42.454Z,20.1
2016-04-22T09:04:42.473Z,19.33
2016-04-22T09:05:42.491Z,19.43
2016-04-22T09:06:42.525Z,18.07
2016-04-22T09:07:42.559Z,18.66
2016-04-22T09:08:42.562Z,19.04
2016-04-22T09:09:42.611Z,19.34
2016-04-22T09:10:42.614Z,17.79
2016-04-22T09:11:42.647Z,16.34
2016-04-22T09:12:42.666Z,14.4
2016-04-22T09:13:42.683Z,15.47
2016-04-22T09:14:42.718Z,16.72
2016-04-22T09:15:42.753Z,19.92
2016-04-22T09:16:42.771Z,19.24
2016-04-22T09:17:42.805Z,19.35
2016-04-22T09:18:42.822Z,20.12
2016-04-22T09:19:42.857Z,17.12
2016-04-22T09:20:42.875Z,14.9
2016-04-22T09:21:42.909Z,15.58
2016-04-22T09:22:42.943Z,15.58
2016-04-22T09:23:42.968Z,16.16
2016-04-22T09:24:42.986Z,18.29
2016-04-22T09:25:43.005Z,16.84
2016-04-22T09:26:43.023Z,17.13
2016-04-22T09:27:43.056Z,17.32
2016-04-22T09:28:43.092Z,15.59
2016-04-22T09:29:43.125Z,14.23
2016-04-22T09:30:43.127Z,15.39
2016-04-22T09:31:43.178Z,14.14
2016-04-22T09:32:43.195Z,13.56
2016-04-22T09:33:43.213Z,14.43
2016-04-22T09:34:43.247Z,13.85
2016-04-22T09:35:43.267Z,13.17
2016-04-22T09:36:43.300Z,12.3
2016-04-22T09:37:43.320Z,12.68
2016-04-22T09:38:43.353Z,13.56
2016-04-22T09:39:43.403Z,14.53
2016-04-22T09:40:43.405Z,14.91
2016-04-22T09:41:43.424Z,15.3
2016-04-22T09:42:43.458Z,15.59
2016-04-22T09:43:43.475Z,14.72
2016-04-22T09:44:43.525Z,14.81
2016-04-22T09:45:43.528Z,15.11
2016-04-22T09:46:43.563Z,16.17
2016-04-22T09:47:43.597Z,16.17
2016-04-22T09:48:43.614Z,15.98
2016-04-22T09:49:43.649Z,16.75
2016-04-22T09:50:43.666Z,14.62
2016-04-22T09:51:43.701Z,14.14
2016-04-22T09:52:43.718Z,13.26
2016-04-22T09:53:43.752Z,13.36
2016-04-22T09:54:43.771Z,13.65
2016-04-22T09:55:43.805Z,13.75
2016-04-22T09:56:43.824Z,13.56
2016-04-22T09:57:43.857Z,12.1
2016-04-22T09:58:43.876Z,14.81
2016-04-22T09:59:43.940Z,16.16
2016-04-22T10:00:43.943Z,14.23
2016-04-22T10:01:43.962Z,15.58
2016-04-22T10:02:44.183Z,15.68
2016-04-22T10:03:44.015Z,16.06
2016-04-22T10:04:44.031Z,15.48
2016-04-22T10:05:44.067Z,14.42
2016-04-22T10:06:44.084Z,14.9
2016-04-22T10:07:44.119Z,14.42
2016-04-22T10:13:39.024Z,14.42
2016-04-22T10:14:39.027Z,13.07
2016-04-22T10:15:39.061Z,13.65
2016-04-22T10:16:39.096Z,15.78
2016-04-22T10:17:39.113Z,15.78
2016-04-22T10:18:39.148Z,14.61
2016-04-22T10:19:39.166Z,14.32
2016-04-22T10:20:39.185Z,13.83
2016-04-22T10:21:39.218Z,15.1
2016-04-22T10:22:39.237Z,16.35
2016-04-22T10:23:39.270Z,16.25
2016-04-22T10:24:39.320Z,14.9
2016-04-22T10:25:39.323Z,14.81
2016-04-22T10:26:39.356Z,14.41
2016-04-22T10:27:39.375Z,15.77
2016-04-22T10:28:39.393Z,14.41
2016-04-22T10:29:39.428Z,13.73
2016-04-22T10:30:39.445Z,14.9
2016-04-22T10:31:39.479Z,13.06
2016-04-22T10:32:39.545Z,13.54
2016-04-22T10:33:39.532Z,13.73
2016-04-22T10:34:39.551Z,13.73
2016-04-22T10:35:39.584Z,14.5
2016-04-22T10:36:39.602Z,14.89
2016-04-22T10:37:39.620Z,14.5
2016-04-22T10:38:39.655Z,14.98
2016-04-22T10:39:39.689Z,14.98
2016-04-22T10:40:39.707Z,14.69
2016-04-22T10:41:39.725Z,14.3
2016-04-22T10:42:39.759Z,14.59
2016-04-22T10:43:39.794Z,16.04
2016-04-22T10:44:39.811Z,17.01
2016-04-22T10:45:39.846Z,15.46
2016-04-22T10:46:39.863Z,15.56
2016-04-22T10:47:39.882Z,15.28
2016-04-22T10:48:39.916Z,17.21
2016-04-22T10:49:39.949Z,17.4
2016-04-22T10:50:39.968Z,16.44
2016-04-22T10:51:39.986Z,17.6
2016-04-22T10:52:40.020Z,16.93
2016-04-22T10:53:40.054Z,16.83
2016-04-22T10:54:40.073Z,14.7
2016-04-22T10:55:40.106Z,15.96
2016-04-22T10:56:40.125Z,17.12
2016-04-22T10:57:40.143Z,16.54
2016-04-22T10:58:40.161Z,17.02
2016-04-22T10:59:40.195Z,17.8
2016-04-22T11:00:40.432Z,16.84
2016-04-22T11:01:40.248Z,15.67
2016-04-22T11:02:40.281Z,15.58
2016-04-22T11:03:40.315Z,16.46
2016-04-22T11:04:40.349Z,16.84
2016-04-22T11:05:40.353Z,17.22
2016-04-22T11:06:40.387Z,18.19
2016-04-22T11:07:40.405Z,16.36
2016-04-22T11:08:40.422Z,13.17
2016-04-22T11:09:40.456Z,12.98
2016-04-22T11:10:40.491Z,14.14
2016-04-22T11:11:39.758Z,13.36
2016-04-22T11:12:40.558Z,12.98
2016-04-22T11:13:40.577Z,14.34
2016-04-22T11:14:40.611Z,13.18
2016-04-22T11:15:40.613Z,13.46
2016-04-22T11:16:40.647Z,15.99
2016-04-22T11:17:40.665Z,15.8
2016-04-22T11:18:40.699Z,13.86
2016-04-22T11:19:40.718Z,13.96
2016-04-22T11:20:40.752Z,13.77
2016-04-22T11:21:40.794Z,13.77
2016-04-22T11:22:40.795Z,13.19
2016-04-22T11:23:40.814Z,13.09
2016-04-22T11:24:40.848Z,14.07
2016-04-22T11:25:40.897Z,14.45
2016-04-22T11:26:40.915Z,13.2
2016-04-22T11:27:40.934Z,13.29
2016-04-22T11:28:40.968Z,13.58
2016-04-22T11:29:40.986Z,12.81
2016-04-22T11:30:41.020Z,13.48
2016-04-22T11:31:41.039Z,14.85
2016-04-22T11:32:41.073Z,15.23
2016-04-22T11:33:41.091Z,13.2
2016-04-22T11:34:41.124Z,13.01
2016-04-22T11:35:41.144Z,13.2
2016-04-22T11:36:41.177Z,12.9
2016-04-22T11:37:41.210Z,14.55
2016-04-22T11:38:41.229Z,14.45
2016-04-22T11:39:41.263Z,13.58
2016-04-22T11:40:41.282Z,13.4
2016-04-22T11:41:41.315Z,13.39
2016-04-22T11:42:41.333Z,13.1
2016-04-22T11:43:41.368Z,12.9
2016-04-22T11:44:41.402Z,14.26
2016-04-22T11:45:41.420Z,14.37
2016-04-22T11:46:41.468Z,13.68
2016-04-22T11:47:41.487Z,12.33
2016-04-22T11:48:41.506Z,12.23
2016-04-22T11:49:41.540Z,11.94
2016-04-22T11:50:41.589Z,12.71
2016-04-22T11:51:41.592Z,13.29
2016-04-22T11:52:41.610Z,13.59
2016-04-22T11:53:41.645Z,12.62
2016-04-22T11:54:41.678Z,13.1
2016-04-22T11:55:41.712Z,12.91
2016-04-22T11:56:41.745Z,12.04
2016-04-22T11:57:41.765Z,12.62
2016-04-22T11:58:41.783Z,12.71
2016-04-22T11:59:41.817Z,13.11
2016-04-22T12:00:41.867Z,14.47
2016-04-22T12:01:41.884Z,13.5
2016-04-22T12:02:41.903Z,14.18
2016-04-22T12:03:41.922Z,12.92
2016-04-22T12:04:41.955Z,11.94
2016-04-22T12:05:41.989Z,12.62
2016-04-22T12:06:42.008Z,13.2
2016-04-22T12:07:42.072Z,13.78
2016-04-22T12:08:42.091Z,13.78
2016-04-22T12:09:42.094Z,14.27
2016-04-22T12:10:42.237Z,14.85
2016-04-22T12:11:42.161Z,13.01
2016-04-22T12:12:42.179Z,13.59
2016-04-22T12:13:42.213Z,12.71
2016-04-22T12:14:42.232Z,11.26
2016-04-22T12:15:42.266Z,12.51
2016-04-22T12:16:42.300Z,13.29
2016-04-22T12:17:42.335Z,13.29
2016-04-22T12:18:42.337Z,14.65
2016-04-22T12:19:42.684Z,15.03
2016-04-22T12:20:42.516Z,14.55
2016-04-22T12:21:42.425Z,13.87
2016-04-22T12:22:42.459Z,15.61
2016-04-22T12:23:42.524Z,13.67
2016-04-22T12:24:42.527Z,13.39
2016-04-22T12:25:42.544Z,13.67
2016-04-22T12:26:42.563Z,13.1
2016-04-22T12:27:42.597Z,13.97
2016-04-22T12:28:42.631Z,16.11
2016-04-22T12:29:42.650Z,17.38
2016-04-22T12:30:42.668Z,14.37
2016-04-22T12:31:42.702Z,14.28
2016-04-22T12:32:42.766Z,14.76
2016-04-22T12:33:42.754Z,13.59
2016-04-22T12:34:42.804Z,12.34
2016-04-22T12:35:42.838Z,12.62
2016-04-22T12:36:42.841Z,14.18
2016-04-22T12:37:42.874Z,15.15
2016-04-22T12:38:42.893Z,13.99
2016-04-22T12:39:42.943Z,13.12
2016-04-22T12:40:42.960Z,12.73
2016-04-22T12:41:42.979Z,13.79
2016-04-22T12:42:43.012Z,12.05
2016-04-22T12:43:43.062Z,11.76
2016-04-22T12:44:43.065Z,13.31
2016-04-22T12:45:43.098Z,14.48
2016-04-22T12:46:43.132Z,14.96
2016-04-22T12:47:43.166Z,14.38
2016-04-22T12:48:43.200Z,13.02
2016-04-22T12:49:43.203Z,13.21
2016-04-22T12:50:43.237Z,12.82
2016-04-22T12:51:43.270Z,14.18
2016-04-22T12:52:43.306Z,15.35
2016-04-22T12:53:43.308Z,15.25
2016-04-22T12:54:43.341Z,15.64
2016-04-22T12:55:43.391Z,15.84
2016-04-22T12:56:43.409Z,13.9
2016-04-22T12:57:43.444Z,14.58
2016-04-22T12:58:43.462Z,14.58
2016-04-22T12:59:43.481Z,13.22
2016-04-22T13:00:43.514Z,14.48
2016-04-22T13:01:43.547Z,13.71